createdAt,value
2023-10-11T00:06:15.190Z,96387.88
2023-10-11T00:16:18.397Z,96380.59
2023-10-11T00:26:23.689Z,96377.59
2023-10-11T00:36:30.931Z,96372.47
2023-10-11T00:46:57.997Z,96369.25
2023-10-11T00:57:00.546Z,96357.34
2023-10-11T01:07:04.320Z,96343.56
2023-10-11T01:17:08.373Z,96345.22
2023-10-11T01:27:14.786Z,96340.63
2023-10-11T01:37:19.081Z,96330.63
2023-10-11T01:47:22.930Z,96329.56
2023-10-11T01:57:26.965Z,96329.56
2023-10-11T02:07:32.788Z,96325.25
2023-10-11T02:17:38.861Z,96318.50
2023-10-11T02:27:43.087Z,96322.25
2023-10-11T02:37:46.348Z,96323.91
2023-10-11T02:47:50.358Z,96309.03
2023-10-11T02:58:06.802Z,96307.72
2023-10-11T03:08:22.649Z,96303.13
2023-10-11T03:18:26.549Z,96304.47
2023-10-11T03:28:30.662Z,96295.56
2023-10-11T03:38:35.337Z,96302.28
2023-10-11T03:48:45.669Z,96305.00
2023-10-11T03:58:51.611Z,96301.50
2023-10-11T04:09:03.838Z,96298.00
2023-10-11T04:19:09.908Z,96286.06
2023-10-11T04:29:20.088Z,96286.88
2023-10-11T04:39:29.007Z,96291.22
2023-10-11T04:49:32.973Z,96288.25
2023-10-11T04:59:41.648Z,96297.97
2023-10-11T05:09:53.908Z,96304.16
2023-10-11T05:19:58.467Z,96304.66
2023-10-11T05:30:13.181Z,96301.66
2023-10-11T05:40:33.656Z,96306.56
2023-10-11T05:50:56.106Z,96310.84
2023-10-11T06:01:00.404Z,96316.75
2023-10-11T06:11:09.071Z,96307.84
2023-10-11T06:21:25.690Z,96318.66
2023-10-11T06:31:34.887Z,96322.44
2023-10-11T06:41:38.522Z,96318.06
2023-10-11T06:51:42.723Z,96310.28
2023-10-11T07:01:46.745Z,96308.69
2023-10-11T07:12:12.953Z,96315.44
2023-10-11T07:22:20.079Z,96332.47
2023-10-11T07:32:28.658Z,96327.38
2023-10-11T07:42:38.592Z,96336.81
2023-10-11T07:52:44.137Z,96344.13
2023-10-11T08:02:57.481Z,96339.81
2023-10-11T08:13:02.014Z,96343.59
2023-10-11T08:23:09.425Z,96335.69
2023-10-11T08:33:15.447Z,96344.53
2023-10-11T08:43:18.300Z,96351.22
2023-10-11T08:53:22.831Z,96336.50
2023-10-11T09:03:27.380Z,96347.38
2023-10-11T09:13:33.266Z,96346.09
2023-10-11T09:23:36.247Z,96346.88
2023-10-11T09:33:42.912Z,96331.03
2023-10-11T09:43:45.953Z,96345.00
2023-10-11T09:53:52.040Z,96347.91
2023-10-11T10:03:54.644Z,96356.91
2023-10-11T10:14:24.238Z,96363.34
2023-10-11T10:24:33.057Z,96357.13
2023-10-11T10:34:43.033Z,96342.72
2023-10-11T10:44:50.735Z,96328.22
2023-10-11T10:55:02.678Z,96321.81
2023-10-11T11:05:15.332Z,96321.41
2023-10-11T11:15:23.353Z,96299.19
2023-10-11T11:25:31.876Z,96293.88
2023-10-11T11:35:45.091Z,96283.09
2023-10-11T11:45:48.602Z,96271.19
2023-10-11T11:55:52.388Z,96264.34
2023-10-11T12:05:54.844Z,96244.38
2023-10-11T12:15:58.664Z,96248.97
2023-10-11T12:26:05.268Z,96238.47
2023-10-11T12:36:09.285Z,96234.44
2023-10-11T12:46:15.038Z,96215.94
2023-10-11T12:56:20.836Z,96220.44
2023-10-11T13:06:23.388Z,96212.31
2023-10-11T13:16:28.888Z,96219.31
2023-10-11T13:26:34.153Z,96206.44
2023-10-11T13:36:40.272Z,96202.97
2023-10-11T13:46:42.885Z,96200.69
2023-10-11T13:56:46.699Z,96178.78
2023-10-11T14:07:01.434Z,96161.97
2023-10-11T14:17:06.745Z,96154.75
2023-10-11T14:27:09.770Z,96152.31
2023-10-11T14:37:14.927Z,96144.59
2023-10-11T14:47:17.433Z,96139.78
2023-10-11T14:57:22.921Z,96130.88
2023-10-11T15:07:25.421Z,96124.50
2023-10-11T15:17:32.767Z,96120.69
2023-10-11T15:27:35.300Z,96116.09
2023-10-11T15:37:42.310Z,96104.06
2023-10-11T15:47:48.441Z,96105.66
2023-10-11T15:57:56.679Z,96099.13
2023-10-11T16:07:59.262Z,96090.47
2023-10-11T16:18:04.067Z,96087.41
2023-10-11T16:28:10.768Z,96083.03
2023-10-11T16:38:14.789Z,96081.72
2023-10-11T16:48:20.021Z,96088.44
2023-10-11T16:58:24.834Z,96097.53
2023-10-11T17:08:28.196Z,96086.41
2023-10-11T17:18:35.736Z,96102.72
2023-10-11T17:28:38.663Z,96098.78
2023-10-11T17:38:42.564Z,96104.63
2023-10-11T17:48:46.493Z,96106.34
2023-10-11T17:58:53.402Z,96111.31
2023-10-11T18:08:55.917Z,96107.84
2023-10-11T18:18:59.868Z,96112.22
2023-10-11T18:29:03.230Z,96102.38
2023-10-11T18:39:09.084Z,96109.16
2023-10-11T18:49:13.349Z,96100.41
2023-10-11T18:59:19.704Z,96098.28
2023-10-11T19:09:24.357Z,96082.69
2023-10-11T19:19:28.219Z,96080.25
2023-10-11T19:29:30.688Z,96092.53
2023-10-11T19:39:34.526Z,96101.31
2023-10-11T19:49:37.044Z,96102.91
2023-10-11T19:59:41.878Z,96086.81
2023-10-11T20:09:44.389Z,96111.69
2023-10-11T20:19:48.695Z,96106.78
2023-10-11T20:29:51.162Z,96110.94
2023-10-11T20:39:55.035Z,96120.13
2023-10-11T20:49:57.580Z,96125.03
2023-10-11T21:00:01.576Z,96120.03
2023-10-11T21:10:09.434Z,96110.16
2023-10-11T21:20:13.982Z,96112.09
2023-10-11T21:30:19.992Z,96109.47
2023-10-11T21:40:25.892Z,96097.00
2023-10-11T21:50:30.066Z,96108.53
2023-10-11T22:00:48.839Z,96101.25
2023-10-11T22:10:52.795Z,96092.94
2023-10-11T22:20:56.589Z,96092.66
2023-10-11T22:31:00.195Z,96095.56
2023-10-11T22:41:04.136Z,96086.03
2023-10-11T22:51:06.896Z,96073.16
2023-10-11T23:01:16.421Z,96074.69
2023-10-11T23:11:19.698Z,96081.09
2023-10-11T23:21:23.893Z,96083.03
2023-10-11T23:31:27.682Z,96089.41
2023-10-11T23:41:38.012Z,96076.94
2023-10-11T23:51:41.177Z,96080.00
